Terminal Aerodrome Forecast
Issued by NWS

Home | Current Version | Previous Version | Text Only | Print | Product List | Glossary On
Versions: 1 2 3 4 5 6 7 8 9 10 11 12 13
666
FTUS44 KTSA 270520
TAFXNA
TAF
KXNA 270520Z 2706/2806 VRB03KT P6SM BKN200
     FM270900 VRB03KT P6SM SCT020 BKN150
      TEMPO 2710/2714 BKN022
     FM271500 16006KT P6SM BKN045 BKN250
     FM280100 14003KT P6SM SCT050 BKN250=

USA.gov is the U.S. government's official web portal to all federal, state and local government web resources and services.